sensor_id;sensor_type;location;lat;lon;timestamp;P1;durP1;ratioP1;P2;durP2;ratioP2
20241;SDS011;10279;46.388;8.116;2023-12-14T00:01:16;5.20;;;4.20;;
20241;SDS011;10279;46.388;8.116;2023-12-14T00:03:43;4.80;;;3.97;;
20241;SDS011;10279;46.388;8.116;2023-12-14T00:06:11;4.47;;;3.97;;
20241;SDS011;10279;46.388;8.116;2023-12-14T00:08:39;5.03;;;3.70;;
20241;SDS011;10279;46.388;8.116;2023-12-14T00:11:06;3.90;;;3.50;;
20241;SDS011;10279;46.388;8.116;2023-12-14T00:13:35;5.00;;;4.23;;
20241;SDS011;10279;46.388;8.116;2023-12-14T00:16:03;4.57;;;3.93;;
20241;SDS011;10279;46.388;8.116;2023-12-14T00:18:31;4.67;;;3.57;;
20241;SDS011;10279;46.388;8.116;2023-12-14T00:20:58;4.63;;;3.87;;
20241;SDS011;10279;46.388;8.116;2023-12-14T00:23:26;4.50;;;3.57;;
20241;SDS011;10279;46.388;8.116;2023-12-14T00:25:53;3.60;;;3.30;;
20241;SDS011;10279;46.388;8.116;2023-12-14T00:28:20;4.03;;;2.77;;
20241;SDS011;10279;46.388;8.116;2023-12-14T00:30:47;3.30;;;3.00;;
20241;SDS011;10279;46.388;8.116;2023-12-14T00:33:14;3.50;;;2.90;;
20241;SDS011;10279;46.388;8.116;2023-12-14T00:35:42;3.63;;;2.87;;
20241;SDS011;10279;46.388;8.116;2023-12-14T00:38:09;3.17;;;2.87;;
20241;SDS011;10279;46.388;8.116;2023-12-14T00:40:36;3.90;;;2.63;;
20241;SDS011;10279;46.388;8.116;2023-12-14T00:43:03;4.63;;;2.83;;
20241;SDS011;10279;46.388;8.116;2023-12-14T00:45:30;2.93;;;2.67;;
20241;SDS011;10279;46.388;8.116;2023-12-14T00:47:57;2.67;;;2.47;;
20241;SDS011;10279;46.388;8.116;2023-12-14T00:50:24;2.70;;;2.50;;
20241;SDS011;10279;46.388;8.116;2023-12-14T00:52:51;3.00;;;2.70;;
20241;SDS011;10279;46.388;8.116;2023-12-14T00:55:18;2.87;;;2.57;;
20241;SDS011;10279;46.388;8.116;2023-12-14T00:57:45;2.87;;;2.50;;
20241;SDS011;10279;46.388;8.116;2023-12-14T01:00:12;2.90;;;2.70;;
20241;SDS011;10279;46.388;8.116;2023-12-14T01:02:40;3.00;;;2.50;;
20241;SDS011;10279;46.388;8.116;2023-12-14T01:05:07;2.70;;;2.50;;
20241;SDS011;10279;46.388;8.116;2023-12-14T01:07:35;3.17;;;2.87;;
20241;SDS011;10279;46.388;8.116;2023-12-14T01:10:02;3.10;;;2.80;;
20241;SDS011;10279;46.388;8.116;2023-12-14T01:12:30;3.67;;;2.60;;
20241;SDS011;10279;46.388;8.116;2023-12-14T01:14:57;3.33;;;2.83;;
20241;SDS011;10279;46.388;8.116;2023-12-14T01:17:24;2.87;;;2.63;;
20241;SDS011;10279;46.388;8.116;2023-12-14T01:19:51;2.93;;;2.47;;
20241;SDS011;10279;46.388;8.116;2023-12-14T01:22:18;3.07;;;2.57;;
20241;SDS011;10279;46.388;8.116;2023-12-14T01:24:46;2.87;;;2.27;;
20241;SDS011;10279;46.388;8.116;2023-12-14T01:27:13;3.83;;;2.83;;
20241;SDS011;10279;46.388;8.116;2023-12-14T01:29:40;3.37;;;2.67;;
20241;SDS011;10279;46.388;8.116;2023-12-14T01:32:07;3.77;;;2.90;;
20241;SDS011;10279;46.388;8.116;2023-12-14T01:34:34;2.83;;;2.57;;
20241;SDS011;10279;46.388;8.116;2023-12-14T01:37:02;3.03;;;2.60;;
20241;SDS011;10279;46.388;8.116;2023-12-14T01:39:29;3.97;;;2.57;;
20241;SDS011;10279;46.388;8.116;2023-12-14T01:41:56;3.13;;;2.80;;
20241;SDS011;10279;46.388;8.116;2023-12-14T01:44:23;2.23;;;2.03;;
20241;SDS011;10279;46.388;8.116;2023-12-14T01:46:50;3.23;;;2.30;;
20241;SDS011;10279;46.388;8.116;2023-12-14T01:49:17;2.20;;;2.00;;
20241;SDS011;10279;46.388;8.116;2023-12-14T01:51:44;3.00;;;2.40;;
20241;SDS011;10279;46.388;8.116;2023-12-14T01:54:12;2.53;;;2.33;;
20241;SDS011;10279;46.388;8.116;2023-12-14T01:56:39;2.60;;;2.33;;
20241;SDS011;10279;46.388;8.116;2023-12-14T01:59:06;2.47;;;2.27;;
20241;SDS011;10279;46.388;8.116;2023-12-14T02:04:11;2.80;;;2.30;;
20241;SDS011;10279;46.388;8.116;2023-12-14T02:06:40;2.50;;;2.30;;
20241;SDS011;10279;46.388;8.116;2023-12-14T02:09:07;2.80;;;2.53;;
20241;SDS011;10279;46.388;8.116;2023-12-14T02:11:34;2.70;;;2.50;;
20241;SDS011;10279;46.388;8.116;2023-12-14T02:14:05;2.50;;;2.30;;
20241;SDS011;10279;46.388;8.116;2023-12-14T02:16:33;2.67;;;2.47;;
20241;SDS011;10279;46.388;8.116;2023-12-14T02:19:01;2.83;;;2.27;;
20241;SDS011;10279;46.388;8.116;2023-12-14T02:21:28;2.47;;;2.27;;
20241;SDS011;10279;46.388;8.116;2023-12-14T02:23:55;3.00;;;2.60;;
20241;SDS011;10279;46.388;8.116;2023-12-14T02:26:22;3.00;;;2.60;;
20241;SDS011;10279;46.388;8.116;2023-12-14T02:28:49;2.20;;;2.03;;
20241;SDS011;10279;46.388;8.116;2023-12-14T02:31:17;2.30;;;2.10;;
20241;SDS011;10279;46.388;8.116;2023-12-14T02:33:45;2.50;;;2.30;;
20241;SDS011;10279;46.388;8.116;2023-12-14T02:36:12;2.40;;;2.20;;
20241;SDS011;10279;46.388;8.116;2023-12-14T02:38:39;2.80;;;2.10;;
20241;SDS011;10279;46.388;8.116;2023-12-14T02:41:07;2.60;;;2.40;;
20241;SDS011;10279;46.388;8.116;2023-12-14T02:43:34;2.83;;;2.10;;
20241;SDS011;10279;46.388;8.116;2023-12-14T02:46:01;2.33;;;2.13;;
20241;SDS011;10279;46.388;8.116;2023-12-14T02:48:29;2.97;;;2.57;;
20241;SDS011;10279;46.388;8.116;2023-12-14T02:50:56;2.50;;;2.30;;
20241;SDS011;10279;46.388;8.116;2023-12-14T02:53:26;2.60;;;2.27;;
20241;SDS011;10279;46.388;8.116;2023-12-14T02:55:53;2.23;;;2.03;;
20241;SDS011;10279;46.388;8.116;2023-12-14T02:58:21;2.83;;;2.43;;
20241;SDS011;10279;46.388;8.116;2023-12-14T03:00:48;2.40;;;2.20;;
20241;SDS011;10279;46.388;8.116;2023-12-14T03:03:15;2.87;;;2.30;;
20241;SDS011;10279;46.388;8.116;2023-12-14T03:05:42;2.30;;;2.10;;
20241;SDS011;10279;46.388;8.116;2023-12-14T03:08:09;2.77;;;2.33;;
20241;SDS011;10279;46.388;8.116;2023-12-14T03:10:37;2.47;;;2.27;;
20241;SDS011;10279;46.388;8.116;2023-12-14T03:13:04;2.80;;;2.10;;
20241;SDS011;10279;46.388;8.116;2023-12-14T03:15:31;2.53;;;2.33;;
20241;SDS011;10279;46.388;8.116;2023-12-14T03:17:58;2.17;;;1.97;;
20241;SDS011;10279;46.388;8.116;2023-12-14T03:20:25;2.07;;;1.80;;
20241;SDS011;10279;46.388;8.116;2023-12-14T03:22:52;2.43;;;2.20;;
20241;SDS011;10279;46.388;8.116;2023-12-14T03:25:20;1.77;;;1.67;;
20241;SDS011;10279;46.388;8.116;2023-12-14T03:27:48;2.40;;;2.20;;
20241;SDS011;10279;46.388;8.116;2023-12-14T03:30:15;2.30;;;1.53;;
20241;SDS011;10279;46.388;8.116;2023-12-14T03:32:42;2.23;;;2.03;;
20241;SDS011;10279;46.388;8.116;2023-12-14T03:35:10;2.23;;;1.90;;
20241;SDS011;10279;46.388;8.116;2023-12-14T03:37:37;1.90;;;1.60;;
20241;SDS011;10279;46.388;8.116;2023-12-14T03:40:04;1.60;;;1.50;;
20241;SDS011;10279;46.388;8.116;2023-12-14T03:42:32;2.27;;;2.03;;
20241;SDS011;10279;46.388;8.116;2023-12-14T03:44:59;1.70;;;1.60;;
20241;SDS011;10279;46.388;8.116;2023-12-14T03:47:26;1.67;;;1.57;;
20241;SDS011;10279;46.388;8.116;2023-12-14T03:49:53;1.60;;;1.50;;
20241;SDS011;10279;46.388;8.116;2023-12-14T03:52:21;1.07;;;1.07;;
20241;SDS011;10279;46.388;8.116;2023-12-14T03:54:48;1.17;;;1.07;;
20241;SDS011;10279;46.388;8.116;2023-12-14T03:57:15;2.13;;;1.20;;
20241;SDS011;10279;46.388;8.116;2023-12-14T03:59:42;1.70;;;1.30;;
20241;SDS011;10279;46.388;8.116;2023-12-14T04:02:09;1.37;;;1.27;;
20241;SDS011;10279;46.388;8.116;2023-12-14T04:04:36;1.60;;;1.40;;
20241;SDS011;10279;46.388;8.116;2023-12-14T04:07:03;1.60;;;1.50;;
20241;SDS011;10279;46.388;8.116;2023-12-14T04:09:30;2.23;;;1.77;;
20241;SDS011;10279;46.388;8.116;2023-12-14T04:11:57;2.10;;;1.90;;
20241;SDS011;10279;46.388;8.116;2023-12-14T04:14:24;3.27;;;2.30;;
20241;SDS011;10279;46.388;8.116;2023-12-14T04:16:51;2.20;;;2.00;;
20241;SDS011;10279;46.388;8.116;2023-12-14T04:19:18;2.47;;;2.27;;
20241;SDS011;10279;46.388;8.116;2023-12-14T04:21:45;2.63;;;2.43;;
20241;SDS011;10279;46.388;8.116;2023-12-14T04:24:12;2.30;;;2.10;;
20241;SDS011;10279;46.388;8.116;2023-12-14T04:26:40;2.23;;;2.03;;
20241;SDS011;10279;46.388;8.116;2023-12-14T04:29:07;2.13;;;1.90;;
20241;SDS011;10279;46.388;8.116;2023-12-14T04:31:34;2.17;;;1.90;;
20241;SDS011;10279;46.388;8.116;2023-12-14T04:34:02;1.93;;;1.83;;
20241;SDS011;10279;46.388;8.116;2023-12-14T04:36:29;2.20;;;2.00;;
20241;SDS011;10279;46.388;8.116;2023-12-14T04:38:56;2.20;;;2.00;;
20241;SDS011;10279;46.388;8.116;2023-12-14T04:41:23;2.00;;;1.90;;
20241;SDS011;10279;46.388;8.116;2023-12-14T04:43:50;2.03;;;1.93;;
20241;SDS011;10279;46.388;8.116;2023-12-14T04:46:17;2.30;;;2.10;;
20241;SDS011;10279;46.388;8.116;2023-12-14T04:48:44;2.20;;;1.20;;
20241;SDS011;10279;46.388;8.116;2023-12-14T04:51:12;2.47;;;1.60;;
20241;SDS011;10279;46.388;8.116;2023-12-14T04:53:39;1.20;;;1.10;;
20241;SDS011;10279;46.388;8.116;2023-12-14T04:56:10;1.27;;;1.17;;
20241;SDS011;10279;46.388;8.116;2023-12-14T04:58:39;1.20;;;1.10;;
20241;SDS011;10279;46.388;8.116;2023-12-14T05:01:06;0.77;;;0.77;;
20241;SDS011;10279;46.388;8.116;2023-12-14T05:03:37;1.50;;;1.40;;
20241;SDS011;10279;46.388;8.116;2023-12-14T05:06:04;1.37;;;1.27;;
20241;SDS011;10279;46.388;8.116;2023-12-14T05:08:32;1.90;;;1.20;;
20241;SDS011;10279;46.388;8.116;2023-12-14T05:10:59;1.43;;;1.10;;
20241;SDS011;10279;46.388;8.116;2023-12-14T05:13:26;2.00;;;1.10;;
20241;SDS011;10279;46.388;8.116;2023-12-14T05:15:53;1.30;;;1.20;;
20241;SDS011;10279;46.388;8.116;2023-12-14T05:18:20;1.00;;;1.00;;
20241;SDS011;10279;46.388;8.116;2023-12-14T05:20:48;1.57;;;1.13;;
20241;SDS011;10279;46.388;8.116;2023-12-14T05:23:15;1.67;;;1.57;;
20241;SDS011;10279;46.388;8.116;2023-12-14T05:25:42;1.17;;;1.07;;
20241;SDS011;10279;46.388;8.116;2023-12-14T05:28:10;1.67;;;1.43;;
20241;SDS011;10279;46.388;8.116;2023-12-14T05:30:37;1.30;;;1.20;;
20241;SDS011;10279;46.388;8.116;2023-12-14T05:33:04;1.50;;;1.33;;
20241;SDS011;10279;46.388;8.116;2023-12-14T05:35:33;1.57;;;1.33;;
20241;SDS011;10279;46.388;8.116;2023-12-14T05:38:00;1.50;;;1.30;;
20241;SDS011;10279;46.388;8.116;2023-12-14T05:40:27;1.37;;;1.27;;
20241;SDS011;10279;46.388;8.116;2023-12-14T05:42:54;1.70;;;1.60;;
20241;SDS011;10279;46.388;8.116;2023-12-14T05:45:21;1.50;;;1.40;;
20241;SDS011;10279;46.388;8.116;2023-12-14T05:47:48;1.23;;;1.13;;
20241;SDS011;10279;46.388;8.116;2023-12-14T05:50:15;1.60;;;1.50;;
20241;SDS011;10279;46.388;8.116;2023-12-14T05:52:43;0.87;;;0.87;;
20241;SDS011;10279;46.388;8.116;2023-12-14T05:55:12;1.20;;;1.10;;
20241;SDS011;10279;46.388;8.116;2023-12-14T05:57:39;1.20;;;1.10;;
20241;SDS011;10279;46.388;8.116;2023-12-14T06:00:06;0.70;;;0.70;;
20241;SDS011;10279;46.388;8.116;2023-12-14T06:02:34;1.53;;;1.10;;
20241;SDS011;10279;46.388;8.116;2023-12-14T06:05:05;1.10;;;1.00;;
20241;SDS011;10279;46.388;8.116;2023-12-14T06:07:34;1.30;;;1.10;;
20241;SDS011;10279;46.388;8.116;2023-12-14T06:10:01;1.30;;;1.20;;
20241;SDS011;10279;46.388;8.116;2023-12-14T06:12:30;1.23;;;1.13;;
20241;SDS011;10279;46.388;8.116;2023-12-14T06:14:57;1.10;;;1.00;;
20241;SDS011;10279;46.388;8.116;2023-12-14T06:17:24;0.80;;;0.80;;
20241;SDS011;10279;46.388;8.116;2023-12-14T06:19:55;0.80;;;0.80;;
20241;SDS011;10279;46.388;8.116;2023-12-14T06:22:22;0.80;;;0.80;;
20241;SDS011;10279;46.388;8.116;2023-12-14T06:24:49;0.80;;;0.80;;
20241;SDS011;10279;46.388;8.116;2023-12-14T06:27:16;0.73;;;0.73;;
20241;SDS011;10279;46.388;8.116;2023-12-14T06:29:43;1.47;;;0.73;;
20241;SDS011;10279;46.388;8.116;2023-12-14T06:32:10;0.60;;;0.60;;
20241;SDS011;10279;46.388;8.116;2023-12-14T06:34:37;0.67;;;0.67;;
20241;SDS011;10279;46.388;8.116;2023-12-14T06:37:05;2.10;;;0.70;;
20241;SDS011;10279;46.388;8.116;2023-12-14T06:39:32;0.80;;;0.80;;
20241;SDS011;10279;46.388;8.116;2023-12-14T06:41:59;0.67;;;0.67;;
20241;SDS011;10279;46.388;8.116;2023-12-14T06:44:26;0.93;;;0.60;;
20241;SDS011;10279;46.388;8.116;2023-12-14T06:46:54;0.90;;;0.90;;
20241;SDS011;10279;46.388;8.116;2023-12-14T06:49:22;0.80;;;0.80;;
20241;SDS011;10279;46.388;8.116;2023-12-14T06:51:49;0.80;;;0.80;;
20241;SDS011;10279;46.388;8.116;2023-12-14T06:54:16;0.70;;;0.70;;
20241;SDS011;10279;46.388;8.116;2023-12-14T06:56:43;1.50;;;1.40;;
20241;SDS011;10279;46.388;8.116;2023-12-14T06:59:10;1.80;;;0.80;;
20241;SDS011;10279;46.388;8.116;2023-12-14T07:01:38;0.70;;;0.70;;
20241;SDS011;10279;46.388;8.116;2023-12-14T07:04:05;2.73;;;1.10;;
20241;SDS011;10279;46.388;8.116;2023-12-14T07:06:32;1.20;;;0.90;;
20241;SDS011;10279;46.388;8.116;2023-12-14T07:09:01;0.97;;;0.80;;
20241;SDS011;10279;46.388;8.116;2023-12-14T07:11:28;0.60;;;0.60;;
20241;SDS011;10279;46.388;8.116;2023-12-14T07:13:55;1.50;;;0.80;;
20241;SDS011;10279;46.388;8.116;2023-12-14T07:16:22;0.60;;;0.60;;
20241;SDS011;10279;46.388;8.116;2023-12-14T07:18:49;1.23;;;1.13;;
20241;SDS011;10279;46.388;8.116;2023-12-14T07:21:17;0.93;;;0.70;;
20241;SDS011;10279;46.388;8.116;2023-12-14T07:23:44;1.00;;;0.80;;
20241;SDS011;10279;46.388;8.116;2023-12-14T07:26:11;3.83;;;0.80;;
20241;SDS011;10279;46.388;8.116;2023-12-14T07:28:38;1.23;;;0.93;;
20241;SDS011;10279;46.388;8.116;2023-12-14T07:31:05;0.60;;;0.60;;
20241;SDS011;10279;46.388;8.116;2023-12-14T07:33:32;1.07;;;0.97;;
20241;SDS011;10279;46.388;8.116;2023-12-14T07:35:59;0.70;;;0.70;;
20241;SDS011;10279;46.388;8.116;2023-12-14T07:38:26;1.63;;;1.10;;
20241;SDS011;10279;46.388;8.116;2023-12-14T07:40:53;3.07;;;1.20;;
20241;SDS011;10279;46.388;8.116;2023-12-14T07:43:21;1.00;;;1.00;;
20241;SDS011;10279;46.388;8.116;2023-12-14T07:45:49;2.57;;;2.10;;
20241;SDS011;10279;46.388;8.116;2023-12-14T07:48:16;3.70;;;1.70;;
20241;SDS011;10279;46.388;8.116;2023-12-14T07:50:43;1.20;;;1.10;;
20241;SDS011;10279;46.388;8.116;2023-12-14T07:53:10;1.20;;;1.10;;
20241;SDS011;10279;46.388;8.116;2023-12-14T07:55:37;1.40;;;1.30;;
20241;SDS011;10279;46.388;8.116;2023-12-14T07:58:05;1.50;;;1.40;;
20241;SDS011;10279;46.388;8.116;2023-12-14T08:00:34;1.63;;;1.43;;
20241;SDS011;10279;46.388;8.116;2023-12-14T08:03:01;2.40;;;2.03;;
20241;SDS011;10279;46.388;8.116;2023-12-14T08:05:28;2.20;;;1.70;;
20241;SDS011;10279;46.388;8.116;2023-12-14T08:07:56;1.37;;;1.27;;
20241;SDS011;10279;46.388;8.116;2023-12-14T08:10:23;1.47;;;1.37;;
20241;SDS011;10279;46.388;8.116;2023-12-14T08:12:50;1.07;;;0.97;;
20241;SDS011;10279;46.388;8.116;2023-12-14T08:15:18;1.30;;;1.10;;
20241;SDS011;10279;46.388;8.116;2023-12-14T08:17:45;1.30;;;1.00;;
20241;SDS011;10279;46.388;8.116;2023-12-14T08:20:12;0.80;;;0.80;;
20241;SDS011;10279;46.388;8.116;2023-12-14T08:22:40;0.77;;;0.73;;
20241;SDS011;10279;46.388;8.116;2023-12-14T08:25:13;1.70;;;0.90;;
20241;SDS011;10279;46.388;8.116;2023-12-14T08:27:41;0.97;;;0.87;;
20241;SDS011;10279;46.388;8.116;2023-12-14T08:30:09;3.70;;;2.53;;
20241;SDS011;10279;46.388;8.116;2023-12-14T08:32:37;2.27;;;1.77;;
20241;SDS011;10279;46.388;8.116;2023-12-14T08:35:04;2.27;;;1.90;;
20241;SDS011;10279;46.388;8.116;2023-12-14T08:37:32;1.43;;;1.33;;
20241;SDS011;10279;46.388;8.116;2023-12-14T08:39:59;2.47;;;1.90;;
20241;SDS011;10279;46.388;8.116;2023-12-14T08:42:26;1.50;;;1.17;;
20241;SDS011;10279;46.388;8.116;2023-12-14T08:44:53;0.80;;;0.80;;
20241;SDS011;10279;46.388;8.116;2023-12-14T08:47:20;2.77;;;1.27;;
20241;SDS011;10279;46.388;8.116;2023-12-14T08:49:47;1.53;;;1.10;;
20241;SDS011;10279;46.388;8.116;2023-12-14T08:52:15;1.23;;;1.13;;
20241;SDS011;10279;46.388;8.116;2023-12-14T08:54:42;1.70;;;1.60;;
20241;SDS011;10279;46.388;8.116;2023-12-14T08:57:12;2.00;;;1.80;;
20241;SDS011;10279;46.388;8.116;2023-12-14T08:59:39;3.17;;;1.80;;
20241;SDS011;10279;46.388;8.116;2023-12-14T09:02:10;1.13;;;1.03;;
20241;SDS011;10279;46.388;8.116;2023-12-14T09:04:37;4.57;;;3.67;;
20241;SDS011;10279;46.388;8.116;2023-12-14T09:07:05;4.70;;;2.10;;
20241;SDS011;10279;46.388;8.116;2023-12-14T09:09:32;3.20;;;2.70;;
20241;SDS011;10279;46.388;8.116;2023-12-14T09:11:59;2.17;;;0.87;;
20241;SDS011;10279;46.388;8.116;2023-12-14T09:14:26;0.93;;;0.90;;
20241;SDS011;10279;46.388;8.116;2023-12-14T09:16:54;0.73;;;0.70;;
20241;SDS011;10279;46.388;8.116;2023-12-14T09:19:21;0.73;;;0.73;;
20241;SDS011;10279;46.388;8.116;2023-12-14T09:21:48;1.07;;;1.00;;
20241;SDS011;10279;46.388;8.116;2023-12-14T09:24:15;1.03;;;1.00;;
20241;SDS011;10279;46.388;8.116;2023-12-14T09:26:42;2.87;;;1.07;;
20241;SDS011;10279;46.388;8.116;2023-12-14T09:29:10;2.13;;;1.50;;
20241;SDS011;10279;46.388;8.116;2023-12-14T09:31:40;0.90;;;0.90;;
20241;SDS011;10279;46.388;8.116;2023-12-14T09:34:10;1.60;;;0.90;;
20241;SDS011;10279;46.388;8.116;2023-12-14T09:36:38;1.37;;;1.10;;
20241;SDS011;10279;46.388;8.116;2023-12-14T09:39:05;1.07;;;1.00;;
20241;SDS011;10279;46.388;8.116;2023-12-14T09:41:37;1.43;;;1.33;;
20241;SDS011;10279;46.388;8.116;2023-12-14T09:44:06;2.87;;;1.47;;
20241;SDS011;10279;46.388;8.116;2023-12-14T09:46:34;2.60;;;1.70;;
20241;SDS011;10279;46.388;8.116;2023-12-14T09:49:04;1.50;;;1.40;;
20241;SDS011;10279;46.388;8.116;2023-12-14T09:51:34;1.50;;;1.40;;
20241;SDS011;10279;46.388;8.116;2023-12-14T09:54:02;1.27;;;1.17;;
20241;SDS011;10279;46.388;8.116;2023-12-14T09:56:29;1.67;;;1.57;;
20241;SDS011;10279;46.388;8.116;2023-12-14T09:58:57;1.70;;;1.60;;
20241;SDS011;10279;46.388;8.116;2023-12-14T10:01:25;1.57;;;1.47;;
20241;SDS011;10279;46.388;8.116;2023-12-14T10:04:10;1.37;;;1.27;;
20241;SDS011;10279;46.388;8.116;2023-12-14T10:06:39;2.30;;;1.43;;
20241;SDS011;10279;46.388;8.116;2023-12-14T10:09:08;1.27;;;1.17;;
20241;SDS011;10279;46.388;8.116;2023-12-14T10:11:41;1.20;;;1.10;;
20241;SDS011;10279;46.388;8.116;2023-12-14T10:16:48;1.83;;;1.20;;
20241;SDS011;10279;46.388;8.116;2023-12-14T10:19:18;1.07;;;0.90;;
20241;SDS011;10279;46.388;8.116;2023-12-14T10:21:46;0.90;;;0.90;;
20241;SDS011;10279;46.388;8.116;2023-12-14T10:24:14;1.00;;;1.00;;
20241;SDS011;10279;46.388;8.116;2023-12-14T10:26:46;0.97;;;0.87;;
20241;SDS011;10279;46.388;8.116;2023-12-14T10:29:14;2.30;;;1.07;;
20241;SDS011;10279;46.388;8.116;2023-12-14T10:31:43;0.90;;;0.90;;
20241;SDS011;10279;46.388;8.116;2023-12-14T10:34:10;1.00;;;0.90;;
20241;SDS011;10279;46.388;8.116;2023-12-14T10:36:40;0.90;;;0.90;;
20241;SDS011;10279;46.388;8.116;2023-12-14T10:39:09;1.33;;;0.90;;
20241;SDS011;10279;46.388;8.116;2023-12-14T10:41:40;0.80;;;0.80;;
20241;SDS011;10279;46.388;8.116;2023-12-14T10:44:08;1.57;;;0.90;;
20241;SDS011;10279;46.388;8.116;2023-12-14T10:46:57;1.10;;;1.00;;
20241;SDS011;10279;46.388;8.116;2023-12-14T10:49:25;0.90;;;0.87;;
20241;SDS011;10279;46.388;8.116;2023-12-14T10:51:56;0.63;;;0.60;;
20241;SDS011;10279;46.388;8.116;2023-12-14T10:54:25;0.90;;;0.90;;
20241;SDS011;10279;46.388;8.116;2023-12-14T10:56:55;0.90;;;0.90;;
20241;SDS011;10279;46.388;8.116;2023-12-14T10:59:25;1.17;;;0.63;;
20241;SDS011;10279;46.388;8.116;2023-12-14T11:01:53;1.30;;;0.60;;
20241;SDS011;10279;46.388;8.116;2023-12-14T11:04:21;0.97;;;0.87;;
20241;SDS011;10279;46.388;8.116;2023-12-14T11:06:49;0.83;;;0.80;;
20241;SDS011;10279;46.388;8.116;2023-12-14T11:09:17;0.80;;;0.53;;
20241;SDS011;10279;46.388;8.116;2023-12-14T11:11:55;1.33;;;0.90;;
20241;SDS011;10279;46.388;8.116;2023-12-14T11:14:32;1.27;;;1.00;;
20241;SDS011;10279;46.388;8.116;2023-12-14T11:17:05;0.90;;;0.90;;
20241;SDS011;10279;46.388;8.116;2023-12-14T11:19:33;1.00;;;0.90;;
20241;SDS011;10279;46.388;8.116;2023-12-14T11:24:36;0.90;;;0.90;;
20241;SDS011;10279;46.388;8.116;2023-12-14T11:27:08;0.90;;;0.90;;
20241;SDS011;10279;46.388;8.116;2023-12-14T11:29:37;0.80;;;0.80;;
20241;SDS011;10279;46.388;8.116;2023-12-14T11:32:08;1.47;;;1.37;;
20241;SDS011;10279;46.388;8.116;2023-12-14T11:34:35;0.80;;;0.80;;
20241;SDS011;10279;46.388;8.116;2023-12-14T11:37:06;0.73;;;0.73;;
20241;SDS011;10279;46.388;8.116;2023-12-14T11:39:33;1.20;;;1.10;;
20241;SDS011;10279;46.388;8.116;2023-12-14T11:42:01;2.40;;;1.00;;
20241;SDS011;10279;46.388;8.116;2023-12-14T11:44:30;1.33;;;0.70;;
20241;SDS011;10279;46.388;8.116;2023-12-14T11:46:57;0.93;;;0.83;;
20241;SDS011;10279;46.388;8.116;2023-12-14T11:49:25;0.70;;;0.70;;
20241;SDS011;10279;46.388;8.116;2023-12-14T11:51:55;0.80;;;0.80;;
20241;SDS011;10279;46.388;8.116;2023-12-14T11:54:23;0.67;;;0.67;;
20241;SDS011;10279;46.388;8.116;2023-12-14T11:56:50;0.70;;;0.70;;
20241;SDS011;10279;46.388;8.116;2023-12-14T11:59:18;0.93;;;0.67;;
20241;SDS011;10279;46.388;8.116;2023-12-14T12:01:53;0.90;;;0.73;;
20241;SDS011;10279;46.388;8.116;2023-12-14T12:04:22;0.70;;;0.70;;
20241;SDS011;10279;46.388;8.116;2023-12-14T12:07:00;1.20;;;0.70;;
20241;SDS011;10279;46.388;8.116;2023-12-14T12:09:40;1.13;;;0.90;;
20241;SDS011;10279;46.388;8.116;2023-12-14T12:12:09;0.70;;;0.70;;
20241;SDS011;10279;46.388;8.116;2023-12-14T12:14:37;0.73;;;0.70;;
20241;SDS011;10279;46.388;8.116;2023-12-14T12:17:06;0.60;;;0.60;;
20241;SDS011;10279;46.388;8.116;2023-12-14T12:19:34;0.80;;;0.80;;
20241;SDS011;10279;46.388;8.116;2023-12-14T12:22:02;0.47;;;0.47;;
20241;SDS011;10279;46.388;8.116;2023-12-14T12:24:31;1.13;;;0.80;;
20241;SDS011;10279;46.388;8.116;2023-12-14T12:27:00;1.60;;;0.70;;
20241;SDS011;10279;46.388;8.116;2023-12-14T12:29:27;0.87;;;0.70;;
20241;SDS011;10279;46.388;8.116;2023-12-14T12:31:55;0.70;;;0.70;;
20241;SDS011;10279;46.388;8.116;2023-12-14T12:34:22;0.63;;;0.63;;
20241;SDS011;10279;46.388;8.116;2023-12-14T12:36:49;0.50;;;0.50;;
20241;SDS011;10279;46.388;8.116;2023-12-14T12:39:17;0.70;;;0.53;;
20241;SDS011;10279;46.388;8.116;2023-12-14T12:41:44;0.60;;;0.60;;
20241;SDS011;10279;46.388;8.116;2023-12-14T12:44:11;1.23;;;0.80;;
20241;SDS011;10279;46.388;8.116;2023-12-14T12:46:38;2.13;;;0.70;;
20241;SDS011;10279;46.388;8.116;2023-12-14T12:49:06;1.30;;;0.60;;
20241;SDS011;10279;46.388;8.116;2023-12-14T12:51:33;0.73;;;0.50;;
20241;SDS011;10279;46.388;8.116;2023-12-14T12:54:01;0.73;;;0.50;;
20241;SDS011;10279;46.388;8.116;2023-12-14T12:56:38;0.40;;;0.40;;
20241;SDS011;10279;46.388;8.116;2023-12-14T12:59:06;0.40;;;0.40;;
20241;SDS011;10279;46.388;8.116;2023-12-14T13:01:35;0.57;;;0.57;;
20241;SDS011;10279;46.388;8.116;2023-12-14T13:04:03;1.40;;;0.50;;
20241;SDS011;10279;46.388;8.116;2023-12-14T13:06:31;1.40;;;0.43;;
20241;SDS011;10279;46.388;8.116;2023-12-14T13:08:58;0.30;;;0.30;;
20241;SDS011;10279;46.388;8.116;2023-12-14T13:11:25;0.73;;;0.60;;
20241;SDS011;10279;46.388;8.116;2023-12-14T13:13:52;0.50;;;0.50;;
20241;SDS011;10279;46.388;8.116;2023-12-14T13:16:19;1.03;;;0.57;;
20241;SDS011;10279;46.388;8.116;2023-12-14T13:18:46;0.73;;;0.53;;
20241;SDS011;10279;46.388;8.116;2023-12-14T13:21:14;0.50;;;0.50;;
20241;SDS011;10279;46.388;8.116;2023-12-14T13:23:41;1.93;;;0.43;;
20241;SDS011;10279;46.388;8.116;2023-12-14T13:26:08;0.40;;;0.40;;
20241;SDS011;10279;46.388;8.116;2023-12-14T13:28:36;0.80;;;0.60;;
20241;SDS011;10279;46.388;8.116;2023-12-14T13:31:03;0.63;;;0.50;;
20241;SDS011;10279;46.388;8.116;2023-12-14T13:33:30;2.00;;;0.60;;
20241;SDS011;10279;46.388;8.116;2023-12-14T13:35:57;1.43;;;0.50;;
20241;SDS011;10279;46.388;8.116;2023-12-14T13:38:25;0.60;;;0.60;;
20241;SDS011;10279;46.388;8.116;2023-12-14T13:40:52;0.40;;;0.40;;
20241;SDS011;10279;46.388;8.116;2023-12-14T13:43:19;0.47;;;0.30;;
20241;SDS011;10279;46.388;8.116;2023-12-14T13:45:46;0.40;;;0.40;;
20241;SDS011;10279;46.388;8.116;2023-12-14T13:48:27;0.40;;;0.40;;
20241;SDS011;10279;46.388;8.116;2023-12-14T13:50:55;1.27;;;0.43;;
20241;SDS011;10279;46.388;8.116;2023-12-14T13:53:23;1.07;;;0.60;;
20241;SDS011;10279;46.388;8.116;2023-12-14T13:55:50;0.53;;;0.53;;
20241;SDS011;10279;46.388;8.116;2023-12-14T13:58:17;0.70;;;0.70;;
20241;SDS011;10279;46.388;8.116;2023-12-14T14:00:45;0.83;;;0.70;;
20241;SDS011;10279;46.388;8.116;2023-12-14T14:03:12;0.90;;;0.90;;
20241;SDS011;10279;46.388;8.116;2023-12-14T14:05:39;0.67;;;0.67;;
20241;SDS011;10279;46.388;8.116;2023-12-14T14:08:07;0.60;;;0.60;;
20241;SDS011;10279;46.388;8.116;2023-12-14T14:10:42;0.40;;;0.37;;
20241;SDS011;10279;46.388;8.116;2023-12-14T14:13:10;0.40;;;0.40;;
20241;SDS011;10279;46.388;8.116;2023-12-14T14:15:37;1.80;;;0.57;;
20241;SDS011;10279;46.388;8.116;2023-12-14T14:18:04;0.57;;;0.50;;
20241;SDS011;10279;46.388;8.116;2023-12-14T14:20:31;0.67;;;0.63;;
20241;SDS011;10279;46.388;8.116;2023-12-14T14:22:58;0.40;;;0.40;;
20241;SDS011;10279;46.388;8.116;2023-12-14T14:25:26;0.53;;;0.50;;
20241;SDS011;10279;46.388;8.116;2023-12-14T14:27:53;0.40;;;0.40;;
20241;SDS011;10279;46.388;8.116;2023-12-14T14:30:20;0.50;;;0.50;;
20241;SDS011;10279;46.388;8.116;2023-12-14T14:32:48;0.40;;;0.40;;
20241;SDS011;10279;46.388;8.116;2023-12-14T14:35:15;0.63;;;0.53;;
20241;SDS011;10279;46.388;8.116;2023-12-14T14:37:42;3.17;;;1.73;;
20241;SDS011;10279;46.388;8.116;2023-12-14T14:40:13;1.63;;;0.97;;
20241;SDS011;10279;46.388;8.116;2023-12-14T14:42:41;1.03;;;0.70;;
20241;SDS011;10279;46.388;8.116;2023-12-14T14:45:09;4.40;;;3.17;;
20241;SDS011;10279;46.388;8.116;2023-12-14T14:47:40;3.40;;;1.30;;
20241;SDS011;10279;46.388;8.116;2023-12-14T14:50:09;2.70;;;0.80;;
20241;SDS011;10279;46.388;8.116;2023-12-14T14:52:37;0.67;;;0.60;;
20241;SDS011;10279;46.388;8.116;2023-12-14T14:55:05;1.00;;;0.50;;
20241;SDS011;10279;46.388;8.116;2023-12-14T14:57:33;1.60;;;0.60;;
20241;SDS011;10279;46.388;8.116;2023-12-14T15:00:00;0.43;;;0.43;;